Ana Sayfa
METAR-TAF:

METAR-TAF

Havaalanları :

San Angelo Regional Airport (Mathis Field)

San Angelo, Teksas, Amerika Birleşik Devletleri

Enlem: 31-21-05N, Boylam: 100-29-38W, yükseklik: 584 m

Güncel hava durumu gözlemi

Rapor saat 20:51 UTC de 10 dakika önce yapıldı.
Rüzgar doğudan 8 kt
Sıcaklık 31°C
Nem 33%
Basınç 1018 hPa
Görüş mesafesi: 16.1 km
7000 ft yükseklikte parçalı çok bulutlu

METAR: KSJT 312051Z 09008KT 10SM BKN070 31/13 A3007 RMK AO2 SLP165 T03060128 56024

Saat: 16:01 (21:01 UTC)

Tahmin

Rapor saat 17:21 UTC de 3 saat ve 40 dakika önce yapıldı.
Ayın 31'si saat 18 UTC'den ayın 01'si saat 18 UTC'ye kadar geçerli Tahmin
Rüzgar doğudan 9 kt
Görüş mesafesi: 10 km
5000 ft yükseklikte parçalı çok bulutlu
Ayın 01'si saat 0300 UTC'den
Rüzgar doğudan 4 kt
Görüş mesafesi: 10 km
25000 ft yükseklikte parçalı çok bulutlu

TAF: KSJT 311721Z 3118/0118 09009KT P6SM BKN050 FM010300 10004KT P6SM BKN250

4.000'den fazla havaalanı için hava durumu gözlemleri ve tahminleri (METAR ve TAF raporları).

Kullanılabilir istasyonlar harita üzerinde sarı ve kırmızı noktalarla gösterilir.

İstasyonun adını görmek için fareyi noktanın üzerinde gezdirin.

Sonrasında hava gözlem ve tahminlerini görmek için tıklayın.

Haritayı değiştirmek için: yaklaştırmak için siyah artı işaretli yeşil düğmeye ve uzaklaştırmak için de eksi işaretli düğmeye hızla tıklayın; bitişik haritalar için yeşil okları kullanın.


METAR-TAF: